createdAt,value
2019-02-02T00:01:27.572Z,27.33
2019-02-02T00:03:55.177Z,25.77
2019-02-02T00:06:22.749Z,32.03
2019-02-02T00:08:50.335Z,29.77
2019-02-02T00:11:17.948Z,26.13
2019-02-02T00:13:46.302Z,22.70
2019-02-02T00:16:13.885Z,26.13
2019-02-02T00:18:42.289Z,23.73
2019-02-02T00:21:09.917Z,23.20
2019-02-02T00:23:37.453Z,23.37
2019-02-02T00:26:05.067Z,24.23
2019-02-02T00:28:32.647Z,34.77
2019-02-02T00:31:00.226Z,23.80
2019-02-02T00:33:27.831Z,25.37
2019-02-02T00:35:55.399Z,29.13
2019-02-02T00:38:23.742Z,28.20
2019-02-02T00:40:51.365Z,34.50
2019-02-02T00:43:18.944Z,34.67
2019-02-02T00:45:46.523Z,31.67
2019-02-02T00:48:14.131Z,28.23
2019-02-02T00:50:42.477Z,24.93
2019-02-02T00:53:10.053Z,27.73
2019-02-02T00:55:37.666Z,28.03
2019-02-02T00:58:05.427Z,28.03
2019-02-02T01:00:33.001Z,25.93
2019-02-02T01:03:00.616Z,27.13
2019-02-02T01:05:28.961Z,25.90
2019-02-02T01:07:56.538Z,28.20
2019-02-02T01:10:26.832Z,30.03
2019-02-02T01:12:54.411Z,27.20
2019-02-02T01:15:21.991Z,26.07
2019-02-02T01:17:49.606Z,25.63
2019-02-02T01:20:17.191Z,27.97
2019-02-02T01:22:44.768Z,27.23
2019-02-02T01:25:12.382Z,29.00
2019-02-02T01:27:39.968Z,33.83
2019-02-02T01:30:10.231Z,27.30
2019-02-02T01:32:37.810Z,25.87
2019-02-02T01:35:06.157Z,28.37
2019-02-02T01:37:33.737Z,30.33
2019-02-02T01:40:02.115Z,28.20
2019-02-02T01:42:29.689Z,26.97
2019-02-02T01:44:58.035Z,25.83
2019-02-02T01:47:25.676Z,29.77
2019-02-02T01:49:53.855Z,27.90
2019-02-02T01:52:21.726Z,28.57
2019-02-02T01:54:49.333Z,24.70
2019-02-02T01:57:17.674Z,26.07
2019-02-02T01:59:45.251Z,26.17
2019-02-02T02:02:12.859Z,24.77
2019-02-02T02:04:40.449Z,28.10
2019-02-02T02:07:08.027Z,28.00
2019-02-02T02:09:36.006Z,29.23
2019-02-02T02:12:03.589Z,28.47
2019-02-02T02:14:31.931Z,29.53
2019-02-02T02:16:59.536Z,28.53
2019-02-02T02:19:27.888Z,29.87
2019-02-02T02:21:55.463Z,30.50
2019-02-02T02:24:23.074Z,36.53
2019-02-02T02:26:50.647Z,30.87
2019-02-02T02:29:18.225Z,26.57
2019-02-02T02:31:45.871Z,31.73
2019-02-02T02:34:13.452Z,95.83
2019-02-02T02:36:41.026Z,85.87
2019-02-02T02:39:08.637Z,28.70
2019-02-02T02:41:36.216Z,26.47
2019-02-02T02:44:03.810Z,24.60
2019-02-02T02:46:31.408Z,33.67
2019-02-02T02:48:58.999Z,26.20
2019-02-02T02:51:26.559Z,25.63
2019-02-02T02:53:54.194Z,27.33
2019-02-02T02:56:21.777Z,28.17
2019-02-02T02:58:49.339Z,29.73
2019-02-02T03:01:16.945Z,33.00
2019-02-02T03:03:44.525Z,32.83
2019-02-02T03:06:12.874Z,35.10
2019-02-02T03:08:40.482Z,29.07
2019-02-02T03:11:08.389Z,34.97
2019-02-02T03:13:35.962Z,38.80
2019-02-02T03:16:03.604Z,32.60
2019-02-02T03:18:31.176Z,27.23
2019-02-02T03:20:58.750Z,27.57
2019-02-02T03:23:26.362Z,28.43
2019-02-02T03:25:54.066Z,26.83
2019-02-02T03:28:21.519Z,30.60
2019-02-02T03:30:49.147Z,30.80
2019-02-02T03:33:16.723Z,46.00
2019-02-02T03:35:44.311Z,30.07
2019-02-02T03:38:12.373Z,35.83
2019-02-02T03:40:39.945Z,62.10
2019-02-02T03:43:07.539Z,48.07
2019-02-02T03:45:35.143Z,106.53
2019-02-02T03:48:02.724Z,74.43
2019-02-02T03:50:30.297Z,30.07
2019-02-02T03:52:57.911Z,30.83
2019-02-02T03:55:25.494Z,31.37
2019-02-02T03:57:53.087Z,31.97
2019-02-02T04:00:20.703Z,30.80
2019-02-02T04:02:48.271Z,33.40
2019-02-02T04:05:15.856Z,33.60
2019-02-02T04:07:43.468Z,33.97
2019-02-02T04:10:11.810Z,30.93
2019-02-02T04:12:39.383Z,29.47
2019-02-02T04:15:06.995Z,38.37
2019-02-02T04:17:34.576Z,37.90
2019-02-02T04:20:02.152Z,35.47
2019-02-02T04:22:30.240Z,37.70
2019-02-02T04:24:57.818Z,41.05
2019-02-02T04:27:26.160Z,35.00
2019-02-02T04:29:53.767Z,41.28
2019-02-02T04:32:22.105Z,34.87
2019-02-02T04:34:49.687Z,32.47
2019-02-02T04:37:17.312Z,33.57
2019-02-02T04:39:44.892Z,39.30
2019-02-02T04:42:12.465Z,33.53
2019-02-02T04:44:40.073Z,38.57
2019-02-02T04:47:07.670Z,32.93
2019-02-02T04:49:35.237Z,31.40
2019-02-02T04:52:02.842Z,29.73
2019-02-02T04:54:31.187Z,28.07
2019-02-02T04:56:58.765Z,31.77
2019-02-02T04:59:29.336Z,39.77
2019-02-02T05:01:53.955Z,34.83
2019-02-02T05:04:21.543Z,30.03
2019-02-02T05:06:49.174Z,39.00
2019-02-02T05:09:16.749Z,34.13
2019-02-02T05:11:44.323Z,30.63
2019-02-02T05:14:11.938Z,35.97
2019-02-02T05:16:39.513Z,42.33
2019-02-02T05:19:07.093Z,34.83
2019-02-02T05:21:34.690Z,30.80
2019-02-02T05:24:02.265Z,30.03
2019-02-02T05:26:30.612Z,29.90
2019-02-02T05:28:58.239Z,35.20
2019-02-02T05:31:25.809Z,29.67
2019-02-02T05:33:53.893Z,27.33
2019-02-02T05:36:21.271Z,31.90
2019-02-02T05:38:48.846Z,37.07
2019-02-02T05:41:16.425Z,46.60
2019-02-02T05:43:44.797Z,53.57
2019-02-02T05:46:13.145Z,39.37
2019-02-02T05:48:40.712Z,49.40
2019-02-02T05:51:08.333Z,51.23
2019-02-02T05:53:35.911Z,49.17
2019-02-02T05:56:03.481Z,35.13
2019-02-02T05:58:31.091Z,43.33
2019-02-02T06:00:58.665Z,38.30
2019-02-02T06:03:26.241Z,36.57
2019-02-02T06:05:53.851Z,47.07
2019-02-02T06:08:21.432Z,39.07
2019-02-02T06:10:49.768Z,38.63
2019-02-02T06:13:17.732Z,34.90
2019-02-02T06:15:45.313Z,31.90
2019-02-02T06:18:12.902Z,32.53
2019-02-02T06:20:41.304Z,43.37
2019-02-02T06:23:09.634Z,40.50
2019-02-02T06:25:37.205Z,38.80
2019-02-02T06:28:04.825Z,35.13
2019-02-02T06:30:32.402Z,34.13
2019-02-02T06:32:59.985Z,36.07
2019-02-02T06:35:27.645Z,42.97
2019-02-02T06:37:55.240Z,59.30
2019-02-02T06:40:23.580Z,57.50
2019-02-02T06:44:03.891Z,55.15
2019-02-02T06:46:42.967Z,51.58
2019-02-02T06:49:01.563Z,41.87
2019-02-02T06:51:27.776Z,34.33
2019-02-02T06:53:55.428Z,36.53
2019-02-02T06:56:23.003Z,30.10
2019-02-02T06:58:50.940Z,34.10
2019-02-02T07:01:18.515Z,32.20
2019-02-02T07:03:46.477Z,31.13
2019-02-02T07:06:14.087Z,31.93
2019-02-02T07:08:42.470Z,31.33
2019-02-02T07:11:10.011Z,31.87
2019-02-02T07:13:37.645Z,39.63
2019-02-02T07:16:05.219Z,40.73
2019-02-02T07:18:32.819Z,41.60
2019-02-02T07:21:01.193Z,33.60
2019-02-02T07:23:29.545Z,31.97
2019-02-02T07:25:57.131Z,37.77
2019-02-02T07:28:25.515Z,37.23
2019-02-02T07:30:53.860Z,39.05
2019-02-02T07:33:21.444Z,34.10
2019-02-02T07:35:50.103Z,37.90
2019-02-02T07:38:17.679Z,34.43
2019-02-02T07:40:45.595Z,40.17
2019-02-02T07:43:13.208Z,62.87
2019-02-02T07:45:40.797Z,44.13
2019-02-02T07:48:09.139Z,47.37
2019-02-02T07:50:36.764Z,45.03
2019-02-02T07:53:04.339Z,50.17
2019-02-02T07:55:31.926Z,49.93
2019-02-02T07:57:59.620Z,48.83
2019-02-02T08:00:40.182Z,59.63
2019-02-02T08:02:57.535Z,58.20
2019-02-02T08:05:25.148Z,44.93
2019-02-02T08:07:52.716Z,43.37
2019-02-02T08:10:20.294Z,41.53
2019-02-02T08:12:48.778Z,42.63
2019-02-02T08:15:17.121Z,35.13
2019-02-02T08:17:44.702Z,35.37
2019-02-02T08:20:12.312Z,46.57
2019-02-02T08:22:39.886Z,44.60
2019-02-02T08:25:07.471Z,39.37
2019-02-02T08:27:35.681Z,36.53
2019-02-02T08:30:03.243Z,42.60
2019-02-02T08:32:31.621Z,38.53
2019-02-02T08:34:59.202Z,41.87
2019-02-02T08:37:26.792Z,43.43
2019-02-02T08:39:54.365Z,42.77
2019-02-02T08:42:21.987Z,37.50
2019-02-02T08:44:49.570Z,48.37
2019-02-02T08:47:17.138Z,44.57
2019-02-02T08:49:45.501Z,33.53
2019-02-02T08:52:13.024Z,40.00
2019-02-02T08:54:41.446Z,34.07
2019-02-02T08:57:09.848Z,35.37
2019-02-02T08:59:37.418Z,37.27
2019-02-02T09:02:04.998Z,40.27
2019-02-02T09:04:33.541Z,40.77
2019-02-02T09:07:01.057Z,38.77
2019-02-02T09:09:29.400Z,38.37
2019-02-02T09:11:57.024Z,36.77
2019-02-02T09:14:24.619Z,57.37
2019-02-02T09:16:52.208Z,58.50
2019-02-02T09:19:19.963Z,51.17
2019-02-02T09:21:47.537Z,54.03
2019-02-02T09:24:15.113Z,43.10
2019-02-02T09:26:44.012Z,44.27
2019-02-02T09:29:11.646Z,43.73
2019-02-02T09:31:39.186Z,40.30
2019-02-02T09:34:07.299Z,43.53
2019-02-02T09:36:36.185Z,56.88
2019-02-02T09:39:03.728Z,50.27
2019-02-02T09:41:32.553Z,41.93
2019-02-02T09:44:00.178Z,44.77
2019-02-02T09:46:27.700Z,72.77
2019-02-02T09:48:57.739Z,53.27
2019-02-02T09:51:23.988Z,49.63
2019-02-02T09:53:53.525Z,59.87
2019-02-02T09:56:20.237Z,53.97
2019-02-02T09:58:47.814Z,54.93
2019-02-02T10:01:27.148Z,42.67
2019-02-02T10:03:43.804Z,42.07
2019-02-02T10:06:11.427Z,45.70
2019-02-02T10:08:38.973Z,50.40
2019-02-02T10:11:06.638Z,47.40
2019-02-02T10:13:34.226Z,45.13
2019-02-02T10:16:01.821Z,59.53
2019-02-02T10:18:29.697Z,45.17
2019-02-02T10:21:04.128Z,42.73
2019-02-02T10:23:24.852Z,46.77
2019-02-02T10:25:52.532Z,45.90
2019-02-02T10:28:20.873Z,43.70
2019-02-02T10:30:48.482Z,39.70
2019-02-02T10:33:17.244Z,44.73
2019-02-02T10:35:44.822Z,41.07
2019-02-02T10:38:13.205Z,45.60
2019-02-02T10:40:41.157Z,36.77
2019-02-02T10:43:08.736Z,38.07
2019-02-02T10:45:37.083Z,44.13
2019-02-02T10:48:04.713Z,40.60
2019-02-02T10:50:32.292Z,34.70
2019-02-02T10:52:59.868Z,35.07
2019-02-02T10:55:27.554Z,29.00
2019-02-02T10:57:55.130Z,37.13
2019-02-02T11:00:23.481Z,33.43
2019-02-02T11:02:52.621Z,34.43
2019-02-02T11:05:20.208Z,45.40
2019-02-02T11:07:47.900Z,35.20
2019-02-02T11:10:18.950Z,36.63
2019-02-02T11:12:46.378Z,34.53
2019-02-02T11:15:17.076Z,38.63
2019-02-02T11:17:44.441Z,36.10
2019-02-02T11:20:17.560Z,41.20
2019-02-02T11:22:42.732Z,37.57
2019-02-02T11:25:10.349Z,45.43
2019-02-02T11:27:37.932Z,37.73
2019-02-02T11:30:05.577Z,33.00
2019-02-02T11:32:33.887Z,45.47
2019-02-02T11:35:01.465Z,34.60
2019-02-02T11:37:29.044Z,40.17
2019-02-02T11:39:57.047Z,39.23
2019-02-02T11:42:24.625Z,42.73
2019-02-02T11:44:52.203Z,42.50
2019-02-02T11:47:19.839Z,32.60
2019-02-02T11:49:47.420Z,31.07
2019-02-02T11:52:15.775Z,34.97
2019-02-02T11:54:43.399Z,38.97
2019-02-02T11:57:10.989Z,40.03
2019-02-02T11:59:38.579Z,32.00
2019-02-02T12:02:14.198Z,31.00
2019-02-02T12:04:33.802Z,37.97
2019-02-02T12:07:01.840Z,31.70
2019-02-02T12:09:29.483Z,31.87
2019-02-02T12:11:57.071Z,38.33
2019-02-02T12:14:24.652Z,39.87
2019-02-02T12:16:53.125Z,41.57
2019-02-02T12:19:20.727Z,32.67
2019-02-02T12:21:49.069Z,30.33
2019-02-02T12:24:16.704Z,28.83
2019-02-02T12:26:44.834Z,26.67
2019-02-02T12:29:13.181Z,25.00
2019-02-02T12:31:41.285Z,36.03
2019-02-02T12:34:09.637Z,32.43
2019-02-02T12:36:37.212Z,37.30
2019-02-02T12:39:04.841Z,36.13
2019-02-02T12:41:32.416Z,39.37
2019-02-02T12:44:00.020Z,24.70
2019-02-02T12:46:27.626Z,24.87
2019-02-02T12:48:55.204Z,25.20
2019-02-02T12:51:22.785Z,22.87
2019-02-02T12:53:51.103Z,28.70
2019-02-02T12:56:18.682Z,27.20
2019-02-02T12:58:46.276Z,21.30
2019-02-02T13:01:13.899Z,26.50
2019-02-02T13:03:41.797Z,26.27
2019-02-02T13:06:09.391Z,25.67
2019-02-02T13:08:37.696Z,31.43
2019-02-02T13:11:05.271Z,31.03
2019-02-02T13:13:32.860Z,28.93
2019-02-02T13:16:00.545Z,26.93
2019-02-02T13:18:28.127Z,28.20
2019-02-02T13:20:56.476Z,31.37
2019-02-02T13:23:24.143Z,31.25
2019-02-02T13:25:51.716Z,29.63
2019-02-02T13:28:20.064Z,33.23
2019-02-02T13:30:47.964Z,31.90
2019-02-02T13:33:16.316Z,23.20
2019-02-02T13:35:43.895Z,37.57
2019-02-02T13:38:11.512Z,25.17
2019-02-02T13:40:39.099Z,21.53
2019-02-02T13:43:06.681Z,22.03
2019-02-02T13:45:34.690Z,26.20
2019-02-02T13:48:02.267Z,27.10
2019-02-02T13:50:29.862Z,23.33
2019-02-02T13:52:57.523Z,22.20
2019-02-02T13:55:25.098Z,27.90
2019-02-02T13:57:52.672Z,24.10
2019-02-02T14:00:23.758Z,33.33
2019-02-02T14:03:02.322Z,27.77
2019-02-02T14:05:18.927Z,23.47
2019-02-02T14:07:46.559Z,27.47
2019-02-02T14:10:17.038Z,23.67
2019-02-02T14:12:44.608Z,17.37
2019-02-02T14:15:13.445Z,24.10
2019-02-02T14:17:41.012Z,17.00
2019-02-02T14:20:08.598Z,20.50
2019-02-02T14:22:36.228Z,20.27
2019-02-02T14:25:03.809Z,25.60
2019-02-02T14:27:31.378Z,20.00
2019-02-02T14:29:59.031Z,17.17
2019-02-02T14:32:26.624Z,19.77
2019-02-02T14:34:54.964Z,18.63
2019-02-02T14:37:22.583Z,16.73
2019-02-02T14:39:50.175Z,16.27
2019-02-02T14:42:18.449Z,21.03
2019-02-02T14:44:45.914Z,15.87
2019-02-02T14:47:13.989Z,18.73
2019-02-02T14:49:41.571Z,20.17
2019-02-02T14:52:09.350Z,17.83
2019-02-02T14:54:36.906Z,16.67
2019-02-02T14:57:04.489Z,15.90
2019-02-02T14:59:32.884Z,20.07
2019-02-02T15:02:00.461Z,17.80
2019-02-02T15:04:28.052Z,15.67
2019-02-02T15:06:56.931Z,17.70
2019-02-02T15:09:26.176Z,14.17
2019-02-02T15:11:52.081Z,11.40
2019-02-02T15:14:19.703Z,16.10
2019-02-02T15:16:47.279Z,14.32
2019-02-02T15:19:14.869Z,15.17
2019-02-02T15:21:42.482Z,11.23
2019-02-02T15:24:10.061Z,12.17
2019-02-02T15:26:37.627Z,9.33
2019-02-02T15:29:05.242Z,9.50
2019-02-02T15:31:33.582Z,8.03
2019-02-02T15:34:01.152Z,8.83
2019-02-02T15:36:29.943Z,10.40
2019-02-02T15:38:57.523Z,11.63
2019-02-02T15:41:25.137Z,11.50
2019-02-02T15:43:53.534Z,11.20
2019-02-02T15:46:21.122Z,10.43
2019-02-02T15:48:49.466Z,10.30
2019-02-02T15:51:17.107Z,9.90
2019-02-02T15:53:45.418Z,10.07
2019-02-02T15:56:13.049Z,9.70
2019-02-02T15:58:41.474Z,10.90
2019-02-02T16:01:09.046Z,14.00
2019-02-02T16:03:36.618Z,14.33
2019-02-02T16:06:05.871Z,13.20
2019-02-02T16:08:33.440Z,12.73
2019-02-02T16:11:01.014Z,13.87
2019-02-02T16:13:28.642Z,11.23
2019-02-02T16:15:56.216Z,14.47
2019-02-02T16:18:24.649Z,13.90
2019-02-02T16:20:53.070Z,14.23
2019-02-02T16:23:20.639Z,11.10
2019-02-02T16:25:48.249Z,12.80
2019-02-02T16:28:16.250Z,12.10
2019-02-02T16:30:43.821Z,13.43
2019-02-02T16:33:11.413Z,14.43
2019-02-02T16:35:40.609Z,14.13
2019-02-02T16:38:08.181Z,13.30
2019-02-02T16:40:35.800Z,15.03
2019-02-02T16:43:03.443Z,15.70
2019-02-02T16:45:31.781Z,14.43
2019-02-02T16:47:59.358Z,16.23
2019-02-02T16:50:27.687Z,14.70
2019-02-02T16:52:55.264Z,17.20
2019-02-02T16:55:22.849Z,17.50
2019-02-02T16:57:50.470Z,16.90
2019-02-02T17:00:26.829Z,21.43
2019-02-02T17:02:54.406Z,16.40
2019-02-02T17:05:22.027Z,14.93
2019-02-02T17:07:50.388Z,14.33
2019-02-02T17:10:20.957Z,16.53
2019-02-02T17:12:48.602Z,17.07
2019-02-02T17:15:16.948Z,21.43
2019-02-02T17:17:44.517Z,21.13
2019-02-02T17:20:18.427Z,19.23
2019-02-02T17:22:46.009Z,23.62
2019-02-02T17:25:16.964Z,29.33
2019-02-02T17:27:45.697Z,24.70
2019-02-02T17:30:13.438Z,17.40
2019-02-02T17:32:41.010Z,20.13
2019-02-02T17:35:08.680Z,20.50
2019-02-02T17:37:36.992Z,19.43
2019-02-02T17:40:04.578Z,17.83
2019-02-02T17:42:32.233Z,19.20
2019-02-02T17:45:00.577Z,19.83
2019-02-02T17:47:28.174Z,18.77
2019-02-02T17:49:57.051Z,20.33
2019-02-02T17:52:24.640Z,20.03
2019-02-02T17:54:52.974Z,17.43
2019-02-02T17:57:20.622Z,19.10
2019-02-02T17:59:48.199Z,16.17
2019-02-02T18:02:15.785Z,18.67
2019-02-02T18:04:43.410Z,16.07
2019-02-02T18:07:11.017Z,17.70
2019-02-02T18:09:39.360Z,23.80
2019-02-02T18:12:07.384Z,17.07
2019-02-02T18:14:35.735Z,17.23
2019-02-02T18:17:03.666Z,19.43
2019-02-02T18:19:31.332Z,17.73
2019-02-02T18:21:58.934Z,13.77
2019-02-02T18:24:26.477Z,14.23
2019-02-02T18:26:54.113Z,12.83
2019-02-02T18:29:21.687Z,13.13
2019-02-02T18:31:49.310Z,13.43
2019-02-02T18:34:17.275Z,14.87
2019-02-02T18:36:45.609Z,15.17
2019-02-02T18:39:13.181Z,12.70
2019-02-02T18:41:40.801Z,14.50
2019-02-02T18:44:08.362Z,14.37
2019-02-02T18:46:35.955Z,15.37
2019-02-02T18:49:03.606Z,13.57
2019-02-02T18:51:31.176Z,15.10
2019-02-02T18:53:58.761Z,14.07
2019-02-02T18:56:26.854Z,15.13
2019-02-02T18:58:55.195Z,14.63
2019-02-02T19:01:22.766Z,16.03
2019-02-02T19:03:50.371Z,15.80
2019-02-02T19:06:17.969Z,16.63
2019-02-02T19:08:45.819Z,16.83
2019-02-02T19:11:13.981Z,16.75
2019-02-02T19:13:41.558Z,12.23
2019-02-02T19:16:09.168Z,17.63
2019-02-02T19:18:36.770Z,16.17
2019-02-02T19:21:04.378Z,16.40
2019-02-02T19:23:31.985Z,17.50
2019-02-02T19:25:59.600Z,16.73
2019-02-02T19:28:39.135Z,18.13
2019-02-02T19:30:54.772Z,16.93
2019-02-02T19:33:22.399Z,15.57
2019-02-02T19:35:49.977Z,16.70
2019-02-02T19:38:17.554Z,16.77
2019-02-02T19:40:45.185Z,16.57
2019-02-02T19:43:12.762Z,17.17
2019-02-02T19:45:40.355Z,19.33
2019-02-02T19:48:08.296Z,16.97
2019-02-02T19:50:35.872Z,17.13
2019-02-02T19:53:03.513Z,18.00
2019-02-02T19:55:31.079Z,16.50
2019-02-02T19:57:58.674Z,17.87
2019-02-02T20:00:32.434Z,18.73
2019-02-02T20:03:00.518Z,16.67
2019-02-02T20:05:29.265Z,16.80
2019-02-02T20:07:55.674Z,17.40
2019-02-02T20:10:23.339Z,14.10
2019-02-02T20:12:50.919Z,16.90
2019-02-02T20:15:24.703Z,15.30
2019-02-02T20:17:52.328Z,17.07
2019-02-02T20:20:22.597Z,17.20
2019-02-02T20:22:50.186Z,15.30
2019-02-02T20:25:17.807Z,15.67
2019-02-02T20:27:45.405Z,14.57
2019-02-02T20:30:19.478Z,15.17
2019-02-02T20:32:47.098Z,13.67
2019-02-02T20:35:14.684Z,16.97
2019-02-02T20:37:42.260Z,14.90
2019-02-02T20:40:10.833Z,15.80
2019-02-02T20:42:38.819Z,15.30
2019-02-02T20:45:12.130Z,17.80
2019-02-02T20:47:39.769Z,15.70
2019-02-02T20:50:07.733Z,13.97
2019-02-02T20:52:46.629Z,13.33
2019-02-02T20:55:03.396Z,17.13
2019-02-02T20:57:30.984Z,15.98
2019-02-02T20:59:59.340Z,16.85
2019-02-02T21:02:28.421Z,17.07
2019-02-02T21:04:56.004Z,13.70
2019-02-02T21:07:23.585Z,13.60
2019-02-02T21:09:52.003Z,14.00
2019-02-02T21:12:19.591Z,14.60
2019-02-02T21:14:47.546Z,15.70
2019-02-02T21:17:15.206Z,14.13
2019-02-02T21:19:42.797Z,14.43
2019-02-02T21:22:10.380Z,15.10
2019-02-02T21:24:38.802Z,16.97
2019-02-02T21:27:06.352Z,13.10
2019-02-02T21:29:33.929Z,13.57
2019-02-02T21:32:01.542Z,14.60
2019-02-02T21:34:29.886Z,16.07
2019-02-02T21:36:57.471Z,14.67
2019-02-02T21:39:25.642Z,15.13
2019-02-02T21:41:53.218Z,15.87
2019-02-02T21:44:21.575Z,15.50
2019-02-02T21:46:49.749Z,13.90
2019-02-02T21:49:17.371Z,17.08
2019-02-02T21:51:45.697Z,18.35
2019-02-02T21:54:13.305Z,13.67
2019-02-02T21:56:40.880Z,14.00
2019-02-02T21:59:08.448Z,14.67
2019-02-02T22:01:36.061Z,13.77
2019-02-02T22:04:03.633Z,14.33
2019-02-02T22:06:31.983Z,14.60
2019-02-02T22:08:59.650Z,12.73
2019-02-02T22:11:27.235Z,17.08
2019-02-02T22:13:55.579Z,16.63
2019-02-02T22:16:23.194Z,16.57
2019-02-02T22:18:50.778Z,17.80
2019-02-02T22:21:18.361Z,17.37
2019-02-02T22:23:45.983Z,15.30
2019-02-02T22:26:13.879Z,17.10
2019-02-02T22:28:41.461Z,17.93
2019-02-02T22:31:09.086Z,17.97
2019-02-02T22:33:36.675Z,17.80
2019-02-02T22:36:04.261Z,15.47
2019-02-02T22:38:31.897Z,18.87
2019-02-02T22:40:59.471Z,17.27
2019-02-02T22:43:27.046Z,17.60
2019-02-02T22:45:54.677Z,17.03
2019-02-02T22:48:22.250Z,17.37
2019-02-02T22:50:49.843Z,17.30
2019-02-02T22:53:18.224Z,16.33
2019-02-02T22:55:45.810Z,17.50
2019-02-02T22:58:13.395Z,20.60
2019-02-02T23:00:50.191Z,21.40
2019-02-02T23:03:23.432Z,20.60
2019-02-02T23:06:09.114Z,21.08
2019-02-02T23:09:01.903Z,18.27
2019-02-02T23:11:35.745Z,18.83
2019-02-02T23:14:21.609Z,18.13
2019-02-02T23:16:49.229Z,20.27
2019-02-02T23:19:17.577Z,18.13
2019-02-02T23:21:45.169Z,17.80
2019-02-02T23:24:13.557Z,19.53
2019-02-02T23:26:41.133Z,19.20
2019-02-02T23:29:08.723Z,15.83
2019-02-02T23:31:36.397Z,18.47
2019-02-02T23:34:03.986Z,19.17
2019-02-02T23:36:32.338Z,19.67
2019-02-02T23:38:59.959Z,18.17
2019-02-02T23:41:27.538Z,17.27
2019-02-02T23:43:55.121Z,17.43
2019-02-02T23:46:22.735Z,16.67
2019-02-02T23:48:50.364Z,17.40
2019-02-02T23:51:17.948Z,14.93
2019-02-02T23:53:46.344Z,17.37
2019-02-02T23:56:13.928Z,17.63
2019-02-02T23:58:41.528Z,17.10
